Akram Khan Company

Akram Khan is one of the most celebrated and respected dance artists today. In just over 16 years he has created a body of work that has contributed significantly to the arts in the UK and abroad. His reputation has been built on the success of imaginative, highly accessible and relevant productions such as Until the Lions, Kaash, iTMOi (in the mind of igor), DESH, Vertical Road, Gnosis and zero degrees. 

An instinctive and natural collaborator, Khan has been a magnet to world-class artists from other cultures and disciplines. His previous collaborators include the National Ballet of China, actress Juliette Binoche, ballerina Sylvie Guillem, choreographers/dancers Sidi Larbi Cherkaoui and Israel Galván, singer Kylie Minogue, visual artists Anish Kapoor, Antony Gormley and Tim Yip, writer Hanif Kureishi and composers Steve Reich, Nitin Sawhney, Jocelyn Pook and Ben Frost.

Khan’s work is recognised as being profoundly moving, in which his intelligently crafted storytelling is effortlessly intimate and epic. Described by the Financial Times as an artist "who speaks tremendously of tremendous things", a recent highlight of his career was the creation of a section of the London 2012 Olympic Games Opening Ceremony that was received with unanimous acclaim. 

Khan has been the recipient of numerous awards throughout his career including the Laurence Olivier Award, the Bessie Award (New York Dance and Performance Award), the prestigious ISPA (International Society for the Performing Arts) Distinguished Artist Award, the Fred and Adele Astaire Award, the Herald Archangel Award at the Edinburgh International Festival, the South Bank Sky Arts Award and six Critics' Circle National Dance Awards. Khan was awarded an MBE for services to dance in 2005. He is also an Honorary Graduate of University of London as well as Roehampton and De Montfort Universities, and an Honorary Fellow of Trinity Laban.

Khan is an Associate Artist of Sadler’s Wells, London and Curve, Leicester. Akram Khan is one of the most celebrated and respected dance artists today. Previous productions include: DESH, iTMOi (in the mind of igor), Vertical Road, Gnosis.

-- Quaternaire represents Akram Khan Company in Europe apart from UK, Italy, Spain, Holland and Flandres.

Upcoming dates

Date Spectacle Lieu Ville Payssort ascending
2018-04-20 00:00:00-2018-04-20 00:00:00 Chotto Desh Theater Gütersloh  Gütersloh Germany
2018-04-22 00:00:00-2018-04-22 00:00:00 Chotto Desh Forum KulturStadtLev Leverkusen Germany
2018-04-20 00:00:00-2018-04-20 00:00:00 Chotto Desh Theater Gütersloh  Gütersloh Germany
2018-04-22 00:00:00-2018-04-22 00:00:00 Chotto Desh Forum KulturStadtLev Leverkusen Germany
2018-04-04 00:00:00-2018-04-06 00:00:002018-04-04 00:00:00 2018-04-06 00:00:00 Chotto Desh La Coursive, scène nationale la Rochelle La Rochelle France
2018-04-04 00:00:00-2018-04-05 00:00:002018-04-04 00:00:00 2018-04-05 00:00:00 Until the Lions La Coursive, scène nationale la Rochelle La Rochelle France
2018-04-10 00:00:00-2018-04-13 00:00:002018-04-10 00:00:00 2018-04-13 00:00:00 Chotto Desh Théâtre de Nîmes Nîmes France
2018-05-03 00:00:00-2018-05-05 00:00:002018-05-03 00:00:00 2018-05-05 00:00:00 Chotto Desh Théâtre Firmin éemier - La Piscine Châtenay-Malabry France
2018-05-06 00:00:00-2018-05-07 00:00:002018-05-06 00:00:00 2018-05-07 00:00:00 Chotto Desh Théâtre du Fil de l'Eau Pantin France
2018-05-12 00:00:00-2018-05-12 00:00:00 Chotto Desh Espace Michel-Simon Noisy-le-Grand France
2018-05-15 00:00:00-2018-05-17 00:00:002018-05-15 00:00:00 2018-05-17 00:00:00 Chotto Desh Ballet Preljocaj - Pavillon Noir Aix-en-Provence France
2018-05-24 00:00:00-2018-05-25 00:00:002018-05-24 00:00:00 2018-05-25 00:00:00 Chotto Desh Théâtre des Salins Martigues France
2018-05-29 00:00:00-2018-05-30 00:00:002018-05-29 00:00:00 2018-05-30 00:00:00 Chotto Desh La Rose des Vents Villeneuve d'Ascq France
2017-12-20 00:00:00-2017-12-23 00:00:002017-12-20 00:00:00 2017-12-23 00:00:00 Chotto Desh MC2: Grenoble Grenoble France
2018-01-10 00:00:00-2018-01-12 00:00:002018-01-10 00:00:00 2018-01-12 00:00:00 Chotto Desh Château Rouge Annemasse France
2018-01-17 00:00:00-2018-01-19 00:00:002018-01-17 00:00:00 2018-01-19 00:00:00 Chotto Desh Théâtre du Vellein Villefontaine France
2018-01-19 00:00:00-2018-01-20 00:00:002018-01-19 00:00:00 2018-01-20 00:00:00 Until the Lions Bonlieu, Scène Nationale Annecy Annecy France
2018-01-23 00:00:00-2018-01-23 00:00:00 Chotto Desh Opéra de Limoges Limoges France
2018-04-04 00:00:00-2018-04-06 00:00:002018-04-04 00:00:00 2018-04-06 00:00:00 Chotto Desh La Coursive, scène nationale la Rochelle La Rochelle France
2018-04-04 00:00:00-2018-04-05 00:00:002018-04-04 00:00:00 2018-04-05 00:00:00 Until the Lions La Coursive, scène nationale la Rochelle La Rochelle France
2018-04-10 00:00:00-2018-04-13 00:00:002018-04-10 00:00:00 2018-04-13 00:00:00 Chotto Desh Théâtre de Nîmes Nîmes France
2018-05-03 00:00:00-2018-05-05 00:00:002018-05-03 00:00:00 2018-05-05 00:00:00 Chotto Desh Théâtre Firmin éemier - La Piscine Châtenay-Malabry France
2018-05-06 00:00:00-2018-05-07 00:00:002018-05-06 00:00:00 2018-05-07 00:00:00 Chotto Desh Théâtre du Fil de l'Eau Pantin France
2018-05-12 00:00:00-2018-05-12 00:00:00 Chotto Desh Espace Michel-Simon Noisy-le-Grand France
2018-05-15 00:00:00-2018-05-17 00:00:002018-05-15 00:00:00 2018-05-17 00:00:00 Chotto Desh Ballet Preljocaj - Pavillon Noir Aix-en-Provence France
2018-05-24 00:00:00-2018-05-25 00:00:002018-05-24 00:00:00 2018-05-25 00:00:00 Chotto Desh Théâtre des Salins Martigues France
2018-05-29 00:00:00-2018-05-30 00:00:002018-05-29 00:00:00 2018-05-30 00:00:00 Chotto Desh La Rose des Vents Villeneuve d'Ascq France
2018-01-10 00:00:00-2018-01-12 00:00:002018-01-10 00:00:00 2018-01-12 00:00:00 Chotto Desh Château Rouge Annemasse France
2018-01-17 00:00:00-2018-01-19 00:00:002018-01-17 00:00:00 2018-01-19 00:00:00 Chotto Desh Théâtre du Vellein Villefontaine France
2018-01-19 00:00:00-2018-01-20 00:00:002018-01-19 00:00:00 2018-01-20 00:00:00 Until the Lions Bonlieu, Scène Nationale Annecy Annecy France
2018-01-23 00:00:00-2018-01-23 00:00:00 Chotto Desh Opéra de Limoges Limoges France

Past dates

Date Spectacle Lieu Ville Payssort ascending
2015-11-07 00:00:00-2015-11-08 00:00:002015-11-07 00:00:00 2015-11-08 00:00:00 Chotto Desh Pavilion Dance South West Bournemouth UK
2015-11-12 00:00:00-2015-11-12 00:00:00 Chotto Desh The Core at Corby Cube Corby UK
2015-11-14 00:00:00-2015-11-14 00:00:00 Chotto Desh Lakeside Arts Nottingham UK
2015-11-19 00:00:00-2015-11-19 00:00:00 Chotto Desh Circomedia Bristol UK
2015-11-22 00:00:00-2015-11-22 00:00:00 Chotto Desh The Junction Cambridge UK
2015-11-25 00:00:00-2015-11-25 00:00:00 Chotto Desh Gulbenkian Canterbury UK
2015-11-28 00:00:00-2015-11-28 00:00:00 Chotto Desh Northern School of Contemporary Dance Leeds UK
2015-12-04 00:00:00-2015-12-05 00:00:002015-12-04 00:00:00 2015-12-05 00:00:00 Chotto Desh The Curve Theatre Leicester UK
2015-12-16 00:00:00-2015-12-20 00:00:002015-12-16 00:00:00 2015-12-20 00:00:00 Chotto Desh DanceEast Ipswich UK
2016-01-09 00:00:00-2016-01-24 00:00:002016-01-09 00:00:00 2016-01-24 00:00:00 Until the Lions Roundhouse London UK
2016-05-03 00:00:00-2016-05-04 00:00:002016-05-03 00:00:00 2016-05-04 00:00:00 Chotto Desh The Lowry Manchester UK
2016-05-26 00:00:00-2016-05-27 00:00:002016-05-26 00:00:00 2016-05-27 00:00:00 Until the Lions Brighton Festival Brighton UK
2015-10-23 00:00:00-2015-10-23 00:00:00 Chotto Desh DanceEast Ipswich UK
2015-10-25 00:00:00-2015-10-25 00:00:00 Chotto Desh Arts Depot London UK
2015-10-27 00:00:00-2015-10-27 00:00:00 Chotto Desh Corn Exchange Brighton UK
2015-10-30 00:00:00-2015-10-31 00:00:002015-10-30 00:00:00 2015-10-31 00:00:00 Chotto Desh Sadler's Wells London UK
2016-06-23 00:00:00-2016-06-25 00:00:002016-06-23 00:00:00 2016-06-25 00:00:00 Until the Lions Holland Festival Amsterdam The Netherlands
2017-01-19 00:00:00-2017-01-22 00:00:002017-01-19 00:00:00 2017-01-22 00:00:00 Chotto Desh Théâtre Am Stram Gram Geneva Switzerland
2017-02-07 00:00:00-2017-02-07 00:00:00 Chotto Desh Dansnät Sverige Stockholm Sweden
2017-02-09 00:00:00-2017-02-09 00:00:00 Chotto Desh Dansnät Sverige Stockholm Sweden
2017-02-11 00:00:00-2017-02-11 00:00:00 Chotto Desh Dansnät Sverige Stockholm Sweden
2017-02-14 00:00:00-2017-02-14 00:00:00 Chotto Desh Dansnät Sverige Stockholm Sweden
2017-02-16 00:00:00-2017-02-16 00:00:00 Chotto Desh Dansnät Sverige Stockholm Sweden
2017-02-07 00:00:00-2017-02-11 00:00:002017-02-07 00:00:00 2017-02-11 00:00:00 Until the Lions TEAT Champ Fleuri Sainte-Clotilde Reunion Island
2017-01-20 00:00:00-2017-01-21 00:00:002017-01-20 00:00:00 2017-01-21 00:00:00 Until the Lions Grand Théâtre de Luxembourg Luxembourg Luxembourg
2016-04-20 00:00:00-2016-04-23 00:00:002016-04-20 00:00:00 2016-04-23 00:00:00 Until the Lions Movimentos Wolfsburg Germany
2016-01-28 00:00:00-2016-01-29 00:00:002016-01-28 00:00:00 2016-01-29 00:00:00 Until the Lions La Comete - scene nationale Chalons-en-Champagne France
2016-04-27 00:00:00-2016-04-30 00:00:002016-04-27 00:00:00 2016-04-30 00:00:00 Until the Lions MC2:Grenoble Grenoble France
2017-01-25 00:00:00-2017-01-25 00:00:00 Until the Lions Maison de la Culture d'Amiens Amiens France
2017-01-26 00:00:00-2017-01-28 00:00:002017-01-26 00:00:00 2017-01-28 00:00:00 Chotto Desh Espace 1789 Saint Ouen France
2017-01-31 00:00:00-2017-01-31 00:00:00 Chotto Desh Théâtre des Bergeries Noisy-le-Sec France
2017-02-02 00:00:00-2017-02-03 00:00:002017-02-02 00:00:00 2017-02-03 00:00:00 Chotto Desh Le Prisme Saint-Quentin-en-Yvelines France
2017-02-16 00:00:00-2017-02-16 00:00:00 Until the Lions Centre national de danse contemporaine d'Angers Angers France
2017-11-26 00:00:00-2017-11-27 00:00:002017-11-26 00:00:00 2017-11-27 00:00:00 Chotto Desh Centre des Arts d'Enghien Enghien-les-Bains France
2017-11-29 00:00:00-2017-11-30 00:00:002017-11-29 00:00:00 2017-11-30 00:00:00 Chotto Desh Théâtre des Feuillants, Association Bourguignonne Culturelle Dijon France
2017-12-06 00:00:00-2017-12-09 00:00:002017-12-06 00:00:00 2017-12-09 00:00:00 Chotto Desh Maison de la Danse de Lyon Lyon France
2017-12-12 00:00:00-2017-12-14 00:00:002017-12-12 00:00:00 2017-12-14 00:00:00 Chotto Desh Espace des Arts Châlon-sur-Saône France